Time;durP1;ratioP1;P1;durP2;ratioP2;P2;SDS_P1;SDS_P2;PMS_P1;PMS_P2;Temp;Humidity;BMP_temperature;BMP_pressure;BME280_temperature;BME280_humidity;BME280_pressure;Samples;Min_cycle;Max_cycle;Signal;HPM_P1;HPM_P2
2023/07/09 00:01:21;;;;;;;;;;;;;;;29.81;35.85;94694.00;4931307;28;8991;-61
2023/07/09 00:03:51;;;;;;;;;;;;;;;29.83;35.47;94694.22;4951592;28;7213;-62
2023/07/09 00:06:19;;;;;;;;;;;;;;;29.83;35.64;94699.03;4950486;28;9603;-61
2023/07/09 00:08:47;;;;;;;;;;;;;;;29.81;35.54;94699.56;4945136;28;9241;-62
2023/07/09 00:11:17;;;;;;;;;;;;;;;29.80;35.49;94695.28;4949822;28;7202;-62
2023/07/09 00:13:44;;;;;;;;;;;;;;;29.76;35.87;94686.53;4951475;28;6996;-62
2023/07/09 00:16:26;;;;;;;;;;;;;;;29.78;35.92;94692.28;4935920;28;8468;-62
2023/07/09 00:18:54;;;;;;;;;;;;;;;29.78;35.79;94698.59;4952358;28;6983;-62
2023/07/09 00:21:22;;;;;;;;;;;;;;;29.76;36.01;94703.16;4981509;28;9159;-62
2023/07/09 00:23:49;;;;;;;;;;;;;;;29.75;36.14;94699.66;4996995;28;7267;-62
2023/07/09 00:26:16;;;;;;;;;;;;;;;29.75;35.19;94698.91;4983756;28;6965;-61
2023/07/09 00:28:43;;;;;;;;;;;;;;;29.73;35.15;94701.44;4983540;28;7043;-61
2023/07/09 00:31:16;;;;;;;;;;;;;;;29.70;36.50;94694.19;4966676;28;9239;-62
2023/07/09 00:33:47;;;;;;;;;;;;;;;29.70;35.25;94699.72;4966836;28;6891;-62
2023/07/09 00:36:28;;;;;;;;;;;;;;;29.67;35.34;94703.56;4973347;28;9637;-62
2023/07/09 00:38:59;;;;;;;;;;;;;;;29.69;36.07;94703.75;4984019;28;7085;-62
2023/07/09 00:41:25;;;;;;;;;;;;;;;29.66;35.56;94697.28;4974381;28;7202;-62
2023/07/09 00:43:52;;;;;;;;;;;;;;;29.66;35.05;94699.31;4967740;28;7207;-61
2023/07/09 00:46:24;;;;;;;;;;;;;;;29.61;35.11;94686.28;4966965;28;9438;-61
2023/07/09 00:49:05;;;;;;;;;;;;;;;29.62;35.87;94693.31;4984431;28;7049;-62
2023/07/09 00:51:36;;;;;;;;;;;;;;;29.61;35.72;94695.34;4967084;28;7289;-62
2023/07/09 00:54:22;;;;;;;;;;;;;;;29.62;35.96;94698.88;4982442;28;7095;-62
2023/07/09 00:56:53;;;;;;;;;;;;;;;29.62;35.51;94696.09;4966638;28;7293;-62
2023/07/09 00:59:28;;;;;;;;;;;;;;;29.59;35.87;94697.16;4996424;28;8291;-62
2023/07/09 01:02:00;;;;;;;;;;;;;;;29.56;35.47;94692.66;4980635;28;6991;-62
2023/07/09 01:04:32;;;;;;;;;;;;;;;29.54;35.44;94689.66;4968163;28;9392;-62
2023/07/09 01:07:09;;;;;;;;;;;;;;;29.54;35.82;94692.44;4969331;28;6983;-62
2023/07/09 01:09:46;;;;;;;;;;;;;;;29.55;35.53;94696.72;4985312;28;7000;-62
2023/07/09 01:12:30;;;;;;;;;;;;;;;29.55;34.99;94705.78;4986879;28;7105;-62
2023/07/09 01:15:07;;;;;;;;;;;;;;;29.55;35.96;94700.25;4998897;28;7205;-64
2023/07/09 01:17:58;;;;;;;;;;;;;;;29.54;35.65;94703.53;4988732;28;7148;-63
2023/07/09 01:20:26;;;;;;;;;;;;;;;29.52;35.63;94703.31;4985083;28;7112;-64
2023/07/09 01:22:56;;;;;;;;;;;;;;;29.52;35.71;94703.31;4985929;28;9047;-64
2023/07/09 01:25:24;;;;;;;;;;;;;;;29.52;36.05;94700.53;5001787;28;7188;-64
2023/07/09 01:27:52;;;;;;;;;;;;;;;29.52;35.22;94708.84;4966635;28;7074;-64
2023/07/09 01:30:56;;;;;;;;;;;;;;;29.51;35.32;94701.81;4984215;28;9390;-64
2023/07/09 01:33:34;;;;;;;;;;;;;;;29.49;35.33;94701.63;4974952;28;8044;-64
2023/07/09 01:36:02;;;;;;;;;;;;;;;29.49;35.48;94698.84;4974414;28;7210;-64
2023/07/09 01:38:34;;;;;;;;;;;;;;;29.49;36.06;94696.06;5000180;28;7471;-64
2023/07/09 01:41:14;;;;;;;;;;;;;;;29.45;35.79;94698.41;4968825;28;7192;-64
2023/07/09 01:44:07;;;;;;;;;;;;;;;29.45;35.50;94701.91;4999204;28;7174;-64
2023/07/09 01:46:34;;;;;;;;;;;;;;;29.45;35.71;94701.19;4934605;29;6965;-64
2023/07/09 01:49:10;;;;;;;;;;;;;;;29.42;35.62;94699.47;4934111;29;7187;-64
2023/07/09 01:51:38;;;;;;;;;;;;;;;29.42;35.82;94697.44;4933455;29;7117;-64
2023/07/09 01:54:38;;;;;;;;;;;;;;;29.43;36.34;94696.16;4932633;29;7255;-64
2023/07/09 01:57:34;;;;;;;;;;;;;;;29.43;35.64;94695.38;4863516;29;7478;-64
2023/07/09 02:00:20;;;;;;;;;;;;;;;29.41;35.83;94697.94;4879282;29;9143;-64
2023/07/09 02:02:50;;;;;;;;;;;;;;;29.42;35.81;94702.22;4872333;29;9224;-64
2023/07/09 02:06:09;;;;;;;;;;;;;;;29.40;36.21;94700.00;4861238;29;6988;-63
2023/07/09 02:08:36;;;;;;;;;;;;;;;29.39;35.81;94704.03;4885045;29;7183;-64
2023/07/09 02:11:04;;;;;;;;;;;;;;;29.37;35.53;94709.34;4866637;29;9096;-64
2023/07/09 02:13:32;;;;;;;;;;;;;;;29.37;35.11;94711.38;4870975;29;8744;-64
2023/07/09 02:16:11;;;;;;;;;;;;;;;29.37;35.98;94716.91;4883550;29;7197;-64
2023/07/09 02:18:46;;;;;;;;;;;;;;;29.35;36.20;94714.69;4868441;29;8858;-64
2023/07/09 02:21:15;;;;;;;;;;;;;;;29.35;35.40;94719.47;4860506;29;7241;-64
2023/07/09 02:23:42;;;;;;;;;;;;;;;29.33;35.23;94720.00;4907667;29;8752;-55
2023/07/09 02:26:10;;;;;;;;;;;;;;;29.30;36.05;94717.53;4905880;29;7134;-55
2023/07/09 02:28:43;;;;;;;;;;;;;;;29.32;35.80;94717.78;4908405;28;7502;-55
2023/07/09 02:31:09;;;;;;;;;;;;;;;29.30;35.59;94712.72;4936570;28;9274;-55
2023/07/09 02:33:37;;;;;;;;;;;;;;;29.30;35.50;94707.19;4939948;28;7186;-55
2023/07/09 02:36:28;;;;;;;;;;;;;;;29.29;35.38;94716.03;4974585;28;9099;-55
2023/07/09 02:38:54;;;;;;;;;;;;;;;29.28;35.52;94714.53;4973079;28;10588;-55
2023/07/09 02:41:32;;;;;;;;;;;;;;;29.29;35.98;94713.28;4969549;28;8659;-55
2023/07/09 02:44:03;;;;;;;;;;;;;;;29.29;35.67;94716.03;4964726;28;7608;-55
2023/07/09 02:46:32;;;;;;;;;;;;;;;29.27;35.35;94711.03;4984663;28;7252;-55
2023/07/09 02:49:18;;;;;;;;;;;;;;;29.26;36.05;94708.78;4985216;28;7132;-55
2023/07/09 02:51:56;;;;;;;;;;;;;;;29.25;35.69;94713.59;4984861;28;7237;-55
2023/07/09 02:54:27;;;;;;;;;;;;;;;29.24;35.40;94714.84;4984352;28;7248;-55
2023/07/09 02:56:53;;;;;;;;;;;;;;;29.23;35.29;94720.94;4969114;28;7305;-55
2023/07/09 02:59:19;;;;;;;;;;;;;;;29.22;35.91;94711.09;4968604;28;7085;-55
2023/07/09 03:01:52;;;;;;;;;;;;;;;29.22;35.69;94720.19;4967268;28;7184;-55
2023/07/09 03:04:21;;;;;;;;;;;;;;;29.22;36.27;94716.66;5001623;28;7450;-55
2023/07/09 03:06:50;;;;;;;;;;;;;;;29.21;35.68;94710.34;4983443;28;8766;-55
2023/07/09 03:09:24;;;;;;;;;;;;;;;29.21;35.33;94715.91;4999242;28;6991;-55
2023/07/09 03:11:57;;;;;;;;;;;;;;;29.18;36.28;94711.44;4967822;28;7262;-55
2023/07/09 03:14:23;;;;;;;;;;;;;;;29.18;36.01;94718.97;4981682;28;8111;-55
2023/07/09 03:17:02;;;;;;;;;;;;;;;29.18;35.28;94716.22;4986555;28;7060;-55
2023/07/09 03:19:54;;;;;;;;;;;;;;;29.18;36.17;94721.75;4982053;28;7420;-55
2023/07/09 03:22:53;;;;;;;;;;;;;;;29.17;36.27;94729.31;4947945;28;7266;-55
2023/07/09 03:25:32;;;;;;;;;;;;;;;29.15;36.27;94729.06;4945008;28;7720;-55
2023/07/09 03:27:58;;;;;;;;;;;;;;;29.15;35.86;94737.38;4944508;28;6999;-55
2023/07/09 03:30:42;;;;;;;;;;;;;;;29.15;35.53;94728.31;4961058;28;6989;-55
2023/07/09 03:33:24;;;;;;;;;;;;;;;29.12;35.38;94730.13;4963487;28;7484;-56
2023/07/09 03:36:19;;;;;;;;;;;;;;;29.12;36.11;94738.44;4961290;28;9367;-56
2023/07/09 03:38:48;;;;;;;;;;;;;;;29.10;35.31;94738.22;4951341;28;7671;-57
2023/07/09 03:41:16;;;;;;;;;;;;;;;29.11;35.49;94734.16;4958340;28;7494;-56
2023/07/09 03:43:42;;;;;;;;;;;;;;;29.09;36.15;94740.22;4958440;28;7260;-56
2023/07/09 03:46:12;;;;;;;;;;;;;;;29.10;35.22;94744.50;4943118;28;9180;-56
2023/07/09 03:48:38;;;;;;;;;;;;;;;29.08;35.21;94749.06;4958421;28;7251;-56
2023/07/09 03:51:07;;;;;;;;;;;;;;;29.05;36.29;94737.03;4950311;28;7419;-56
2023/07/09 03:53:40;;;;;;;;;;;;;;;29.07;35.48;94742.78;4952240;28;7145;-56
2023/07/09 03:56:26;;;;;;;;;;;;;;;29.08;35.32;94740.75;4962305;28;7206;-56
2023/07/09 03:58:55;;;;;;;;;;;;;;;29.06;35.95;94744.03;4973823;28;7652;-56
2023/07/09 04:01:25;;;;;;;;;;;;;;;29.06;35.33;94738.50;4969596;28;9188;-56
2023/07/09 04:03:54;;;;;;;;;;;;;;;29.05;35.42;94742.56;5003171;28;8278;-56
2023/07/09 04:06:40;;;;;;;;;;;;;;;29.02;35.99;94738.06;4983941;28;7240;-56
2023/07/09 04:09:18;;;;;;;;;;;;;;;29.03;35.64;94750.66;5005266;28;9051;-56
2023/07/09 04:11:44;;;;;;;;;;;;;;;29.00;35.06;94740.63;4987655;28;7244;-56
2023/07/09 04:14:21;;;;;;;;;;;;;;;29.00;36.01;94745.41;4985782;28;7281;-56
2023/07/09 04:17:14;;;;;;;;;;;;;;;29.02;35.74;94759.47;4985819;28;6996;-56
2023/07/09 04:19:45;;;;;;;;;;;;;;;29.00;35.78;94756.47;4944727;28;9183;-56
2023/07/09 04:22:11;;;;;;;;;;;;;;;28.97;35.07;94752.72;4952396;28;7406;-56
2023/07/09 04:24:37;;;;;;;;;;;;;;;28.98;35.83;94750.72;4951044;28;9178;-56
2023/07/09 04:27:05;;;;;;;;;;;;;;;28.96;35.07;94750.50;4949367;28;7504;-56
2023/07/09 04:29:50;;;;;;;;;;;;;;;28.98;35.56;94747.94;4954377;28;8866;-56
2023/07/09 04:32:29;;;;;;;;;;;;;;;28.97;35.96;94757.53;4955140;28;6988;-56
2023/07/09 04:34:57;;;;;;;;;;;;;;;28.96;35.29;94750.50;4950338;28;7309;-56
2023/07/09 04:37:24;;;;;;;;;;;;;;;28.95;35.30;94755.28;4948035;28;7207;-56
2023/07/09 04:39:59;;;;;;;;;;;;;;;28.95;35.32;94749.75;4954808;28;6993;-57
2023/07/09 04:42:49;;;;;;;;;;;;;;;28.94;36.03;94748.25;4954185;28;7220;-56
2023/07/09 04:45:30;;;;;;;;;;;;;;;28.94;35.51;94748.25;4931742;28;9128;-64
2023/07/09 04:47:56;;;;;;;;;;;;;;;28.95;35.82;94748.97;4946906;28;7284;-63
2023/07/09 04:50:50;;;;;;;;;;;;;;;28.95;36.06;94754.53;4946970;28;9181;-64
2023/07/09 04:53:18;;;;;;;;;;;;;;;28.96;35.43;94756.03;4948741;28;8795;-64
2023/07/09 04:55:45;;;;;;;;;;;;;;;28.95;36.10;94755.28;4960051;28;6861;-64
2023/07/09 04:58:13;;;;;;;;;;;;;;;28.91;36.17;94748.53;4970933;28;7236;-64
2023/07/09 05:00:49;;;;;;;;;;;;;;;28.96;35.45;94750.50;4968748;28;8732;-64
2023/07/09 05:03:21;;;;;;;;;;;;;;;28.98;35.68;94753.47;4984066;28;7072;-64
2023/07/09 05:05:50;;;;;;;;;;;;;;;28.99;35.60;94758.50;4997752;28;9119;-64
2023/07/09 05:08:19;;;;;;;;;;;;;;;28.98;36.14;94757.00;4967572;28;7263;-64
2023/07/09 05:10:49;;;;;;;;;;;;;;;28.98;36.52;94759.78;4980853;28;7256;-64
2023/07/09 05:13:16;;;;;;;;;;;;;;;28.99;35.63;94755.00;4965493;28;7247;-63
2023/07/09 05:15:45;;;;;;;;;;;;;;;28.98;36.47;94753.47;4968784;28;7090;-64
2023/07/09 05:18:13;;;;;;;;;;;;;;;29.00;36.60;94757.22;4989166;28;7039;-63
2023/07/09 05:21:06;;;;;;;;;;;;;;;29.03;36.03;94763.75;4986229;28;9790;-63
2023/07/09 05:23:41;;;;;;;;;;;;;;;29.02;36.01;94760.22;4977529;28;7313;-63
2023/07/09 05:26:13;;;;;;;;;;;;;;;29.02;36.41;94760.22;4985888;28;7226;-63
2023/07/09 05:28:43;;;;;;;;;;;;;;;29.03;36.00;94763.75;4981425;28;7160;-63
2023/07/09 05:31:09;;;;;;;;;;;;;;;29.00;36.32;94762.78;4965214;28;9051;-62
2023/07/09 05:33:35;;;;;;;;;;;;;;;29.02;36.23;94765.00;4964838;28;6994;-62
2023/07/09 05:36:02;;;;;;;;;;;;;;;29.00;36.01;94762.00;4979651;28;7229;-63
2023/07/09 05:38:32;;;;;;;;;;;;;;;29.00;36.26;94762.78;4986159;28;9070;-64
2023/07/09 05:41:10;;;;;;;;;;;;;;;29.00;36.73;94768.31;4965957;28;9078;-63
2023/07/09 05:44:29;;;;;;;;;;;;;;;29.00;36.57;94768.31;4984842;28;9065;-63
2023/07/09 05:47:15;;;;;;;;;;;;;;;29.01;36.67;94771.84;4983001;28;7263;-63
2023/07/09 05:49:41;;;;;;;;;;;;;;;29.03;36.59;94767.28;4986161;28;9137;-64
2023/07/09 05:52:10;;;;;;;;;;;;;;;29.02;37.44;94776.84;4969424;28;7173;-64
2023/07/09 05:54:49;;;;;;;;;;;;;;;29.05;36.73;94775.81;4980896;28;7185;-55
2023/07/09 05:57:25;;;;;;;;;;;;;;;29.05;37.21;94761.94;4983051;28;8966;-55
2023/07/09 06:00:04;;;;;;;;;;;;;;;29.05;36.66;94759.19;4983245;28;9183;-55
2023/07/09 06:02:44;;;;;;;;;;;;;;;29.07;36.88;94764.94;5002297;28;7283;-55
2023/07/09 06:05:10;;;;;;;;;;;;;;;29.05;37.76;94769.50;4967218;28;8739;-55
2023/07/09 06:07:41;;;;;;;;;;;;;;;29.03;37.50;94767.28;4985103;28;7343;-56
2023/07/09 06:10:09;;;;;;;;;;;;;;;29.05;37.94;94775.03;4968772;28;6985;-54
2023/07/09 06:12:36;;;;;;;;;;;;;;;29.03;36.97;94772.81;4998458;28;7395;-53
2023/07/09 06:15:05;;;;;;;;;;;;;;;29.03;37.58;94767.28;4966757;28;7317;-55
2023/07/09 06:17:43;;;;;;;;;;;;;;;29.05;37.35;94767.50;4988188;28;7215;-54
2023/07/09 06:20:27;;;;;;;;;;;;;;;29.07;37.72;94778.03;4980495;28;9423;-55
2023/07/09 06:22:53;;;;;;;;;;;;;;;29.03;37.76;94770.03;4980164;28;7435;-55
2023/07/09 06:25:32;;;;;;;;;;;;;;;29.07;36.92;94773.25;4981985;28;7195;-55
2023/07/09 06:28:07;;;;;;;;;;;;;;;29.10;37.19;94771.47;4971945;28;7189;-55
2023/07/09 06:30:40;;;;;;;;;;;;;;;29.14;37.42;94771.16;4969214;28;8740;-55
2023/07/09 06:33:17;;;;;;;;;;;;;;;29.14;37.11;94769.13;4987275;28;9024;-54
2023/07/09 06:35:55;;;;;;;;;;;;;;;29.16;37.15;94763.06;4985800;28;7429;-54
2023/07/09 06:38:57;;;;;;;;;;;;;;;29.16;37.47;94768.59;4981896;28;7648;-55
2023/07/09 06:41:24;;;;;;;;;;;;;;;29.15;37.74;94769.84;4944872;28;7360;-55
2023/07/09 06:44:09;;;;;;;;;;;;;;;29.15;37.44;94767.84;4967998;28;7250;-55
2023/07/09 06:46:36;;;;;;;;;;;;;;;29.16;37.03;94768.59;4945234;28;7124;-55
2023/07/09 06:49:22;;;;;;;;;;;;;;;29.17;38.12;94764.59;4947285;28;8245;-55
2023/07/09 06:52:09;;;;;;;;;;;;;;;29.16;38.15;94768.59;4968609;28;8742;-55
2023/07/09 06:54:35;;;;;;;;;;;;;;;29.19;38.37;94764.81;4959997;28;7815;-55
2023/07/09 06:57:13;;;;;;;;;;;;;;;29.20;38.36;94764.28;4946330;28;9033;-55
2023/07/09 06:59:49;;;;;;;;;;;;;;;29.20;38.71;94760.75;4960025;28;9441;-56
2023/07/09 07:02:27;;;;;;;;;;;;;;;29.22;37.67;94760.97;4959893;28;7341;-55
2023/07/09 07:04:55;;;;;;;;;;;;;;;29.23;38.38;94762.47;4967656;28;7100;-61
2023/07/09 07:07:22;;;;;;;;;;;;;;;29.25;37.39;94765.47;4966282;28;6966;-61
2023/07/09 07:09:51;;;;;;;;;;;;;;;29.22;37.77;94756.19;4965852;28;7034;-61
2023/07/09 07:12:27;;;;;;;;;;;;;;;29.22;38.57;94756.19;4950780;28;8800;-61
2023/07/09 07:14:55;;;;;;;;;;;;;;;29.21;38.46;94754.69;4966577;28;9817;-62
2023/07/09 07:17:23;;;;;;;;;;;;;;;29.25;37.93;94748.84;4959568;28;9363;-61
2023/07/09 07:20:05;;;;;;;;;;;;;;;29.24;38.74;94748.09;4963905;28;9469;-61
2023/07/09 07:22:31;;;;;;;;;;;;;;;29.26;37.91;94750.34;4969162;28;9329;-62
2023/07/09 07:25:02;;;;;;;;;;;;;;;29.25;37.77;94741.28;4986277;28;7015;-61
2023/07/09 07:27:28;;;;;;;;;;;;;;;29.28;38.06;94739.47;4967555;28;9565;-62
2023/07/09 07:30:08;;;;;;;;;;;;;;;29.29;38.54;94738.97;4984312;28;9088;-62
2023/07/09 07:32:55;;;;;;;;;;;;;;;29.27;37.67;94738.00;4987752;28;9180;-62
2023/07/09 07:35:57;;;;;;;;;;;;;;;29.28;37.70;94737.44;4983692;28;7239;-62
2023/07/09 07:38:35;;;;;;;;;;;;;;;29.29;38.49;94735.44;4938979;28;7251;-61
2023/07/09 07:41:10;;;;;;;;;;;;;;;29.29;37.92;94732.66;4938454;28;7160;-61
2023/07/09 07:43:37;;;;;;;;;;;;;;;29.28;37.66;94728.38;4953303;28;7896;-62
2023/07/09 07:46:03;;;;;;;;;;;;;;;29.29;37.85;94730.66;4952838;28;7147;-61
2023/07/09 07:48:31;;;;;;;;;;;;;;;29.31;38.35;94724.56;4955546;28;8997;-62
2023/07/09 07:51:22;;;;;;;;;;;;;;;29.30;38.56;94723.81;4954173;28;6977;-61
2023/07/09 07:53:50;;;;;;;;;;;;;;;29.32;37.86;94731.63;4954621;28;9069;-61
2023/07/09 07:56:27;;;;;;;;;;;;;;;29.32;38.12;94721.25;4954494;28;7206;-61
2023/07/09 07:58:57;;;;;;;;;;;;;;;29.33;38.06;94724.78;4954666;28;9228;-61
2023/07/09 08:01:29;;;;;;;;;;;;;;;29.31;37.66;94719.78;4952821;28;7220;-62
2023/07/09 08:04:06;;;;;;;;;;;;;;;29.32;37.80;94724.03;4954065;28;9449;-62
2023/07/09 08:06:36;;;;;;;;;;;;;;;29.34;38.27;94717.97;4938523;28;9799;-61
2023/07/09 08:09:05;;;;;;;;;;;;;;;29.35;38.48;94725.00;4952830;28;8790;-62
2023/07/09 08:11:32;;;;;;;;;;;;;;;29.36;37.75;94718.19;4942778;28;7162;-62
2023/07/09 08:14:04;;;;;;;;;;;;;;;29.37;37.21;94723.22;4968850;28;7142;-62
2023/07/09 08:16:32;;;;;;;;;;;;;;;29.36;38.34;94724.47;5001440;28;7221;-62
2023/07/09 08:19:09;;;;;;;;;;;;;;;29.37;37.57;94722.44;4969087;28;7228;-62
2023/07/09 08:21:39;;;;;;;;;;;;;;;29.38;37.89;94723.97;4966896;28;8748;-62
2023/07/09 08:24:07;;;;;;;;;;;;;;;29.38;38.15;94726.72;4982559;28;7263;-61
2023/07/09 08:26:39;;;;;;;;;;;;;;;29.37;37.51;94717.66;4966017;28;7404;-62
2023/07/09 08:29:06;;;;;;;;;;;;;;;29.36;37.77;94720.97;4999692;28;9398;-61
2023/07/09 08:31:34;;;;;;;;;;;;;;;29.39;38.00;94725.44;4999521;28;8725;-61
2023/07/09 08:34:00;;;;;;;;;;;;;;;29.39;37.50;94723.44;4984262;28;7511;-61
2023/07/09 08:36:27;;;;;;;;;;;;;;;29.40;37.71;94722.16;4982068;28;7060;-62
2023/07/09 08:38:53;;;;;;;;;;;;;;;29.41;38.43;94731.19;4983820;28;9119;-61
2023/07/09 08:41:34;;;;;;;;;;;;;;;29.39;38.47;94728.97;4966864;28;7069;-62
2023/07/09 08:44:00;;;;;;;;;;;;;;;29.42;38.12;94729.94;4982331;28;7369;-61
2023/07/09 08:46:50;;;;;;;;;;;;;;;29.44;37.10;94735.69;4998512;28;9431;-62
2023/07/09 08:49:48;;;;;;;;;;;;;;;29.44;37.43;94738.47;4964947;28;7000;-62
2023/07/09 08:52:37;;;;;;;;;;;;;;;29.41;37.94;94734.72;4980346;28;7493;-62
2023/07/09 08:55:11;;;;;;;;;;;;;;;29.39;37.61;94734.50;4966243;28;7229;-62
2023/07/09 08:57:42;;;;;;;;;;;;;;;29.40;37.97;94732.50;4981681;28;7223;-62
2023/07/09 09:00:31;;;;;;;;;;;;;;;29.43;38.95;94737.72;4972845;28;6958;-62
2023/07/09 09:03:13;;;;;;;;;;;;;;;29.45;37.87;94737.22;4960399;28;7248;-62
2023/07/09 09:05:48;;;;;;;;;;;;;;;29.45;38.64;94742.75;4983365;28;7363;-62
2023/07/09 09:08:27;;;;;;;;;;;;;;;29.47;37.83;94745.75;4981991;28;7140;-61
2023/07/09 09:11:14;;;;;;;;;;;;;;;29.47;38.39;94740.91;4981098;28;9347;-62
2023/07/09 09:13:45;;;;;;;;;;;;;;;29.48;39.08;94742.44;4997677;28;8767;-62
2023/07/09 09:16:30;;;;;;;;;;;;;;;29.49;38.82;94745.97;4967024;28;7138;-62
2023/07/09 09:18:59;;;;;;;;;;;;;;;29.49;37.75;94741.13;4981755;28;9661;-62
2023/07/09 09:21:40;;;;;;;;;;;;;;;29.49;38.57;94745.97;4996745;28;6999;-62
2023/07/09 09:24:39;;;;;;;;;;;;;;;29.52;38.35;94740.09;4964725;28;7450;-63
2023/07/09 09:27:10;;;;;;;;;;;;;;;29.51;38.25;94737.84;4966597;28;7058;-64
2023/07/09 09:29:36;;;;;;;;;;;;;;;29.53;37.99;94746.41;4968839;28;7138;-64
2023/07/09 09:32:29;;;;;;;;;;;;;;;29.52;39.19;94742.13;4968499;28;7306;-64
2023/07/09 09:34:58;;;;;;;;;;;;;;;29.53;38.40;94741.59;4952705;28;7174;-64
2023/07/09 09:37:32;;;;;;;;;;;;;;;29.56;38.25;94746.06;4966787;28;7053;-64
2023/07/09 09:40:02;;;;;;;;;;;;;;;29.57;38.97;94752.38;4945290;28;7283;-64
2023/07/09 09:42:28;;;;;;;;;;;;;;;29.54;38.62;94742.31;4951764;28;7232;-65
2023/07/09 09:44:57;;;;;;;;;;;;;;;29.54;37.99;94754.16;4943007;28;7436;-64
2023/07/09 09:47:28;;;;;;;;;;;;;;;29.53;38.44;94752.69;4966489;28;7370;-64
2023/07/09 09:49:54;;;;;;;;;;;;;;;29.55;38.22;94749.38;4949387;28;8816;-64
2023/07/09 09:52:30;;;;;;;;;;;;;;;29.54;38.61;94754.16;4942818;28;7245;-64
2023/07/09 09:55:15;;;;;;;;;;;;;;;29.54;38.22;94753.41;4945360;28;7650;-64
2023/07/09 09:57:49;;;;;;;;;;;;;;;29.56;38.35;94757.16;4966665;28;9054;-64
2023/07/09 10:00:19;;;;;;;;;;;;;;;29.56;38.48;94756.41;4951785;28;6997;-64
2023/07/09 10:02:46;;;;;;;;;;;;;;;29.57;38.59;94755.13;4958391;28;7335;-65
2023/07/09 10:05:21;;;;;;;;;;;;;;;29.56;38.42;94746.06;4962095;28;9663;-64
2023/07/09 10:08:11;;;;;;;;;;;;;;;29.55;38.17;94741.81;4993859;28;7248;-64
2023/07/09 10:10:43;;;;;;;;;;;;;;;29.60;38.58;94754.09;4980313;28;7753;-64
2023/07/09 10:13:34;;;;;;;;;;;;;;;29.60;38.50;94751.31;4993244;28;7505;-64
2023/07/09 10:16:36;;;;;;;;;;;;;;;29.55;37.86;94755.69;4967265;28;7282;-64
2023/07/09 10:19:23;;;;;;;;;;;;;;;29.56;37.60;94754.38;4968622;28;7195;-65
2023/07/09 10:22:06;;;;;;;;;;;;;;;29.60;37.44;94749.28;4963533;28;9278;-64
2023/07/09 10:25:11;;;;;;;;;;;;;;;29.67;37.76;94742.38;4946342;28;6990;-64
2023/07/09 10:28:02;;;;;;;;;;;;;;;29.69;37.11;94743.34;4904262;29;7253;-64
2023/07/09 10:30:50;;;;;;;;;;;;;;;29.69;37.40;94743.34;4901852;29;7583;-64
2023/07/09 10:33:38;;;;;;;;;;;;;;;29.70;37.19;94738.53;4899273;29;7008;-64
2023/07/09 10:36:19;;;;;;;;;;;;;;;29.69;38.15;94737.78;4885957;29;9090;-65
2023/07/09 10:39:02;;;;;;;;;;;;;;;29.69;37.56;94731.50;4907006;29;7092;-65
2023/07/09 10:41:42;;;;;;;;;;;;;;;29.65;37.17;94731.06;4903883;29;7748;-65
2023/07/09 10:44:33;;;;;;;;;;;;;;;29.67;36.89;94734.03;4894485;29;9065;-65
2023/07/09 10:47:11;;;;;;;;;;;;;;;29.71;37.17;94735.22;4905458;29;8230;-65
2023/07/09 10:49:41;;;;;;;;;;;;;;;29.76;36.98;94722.59;4892077;29;7240;-66
2023/07/09 10:52:20;;;;;;;;;;;;;;;29.78;36.25;94720.03;4890384;29;7259;-65
2023/07/09 10:55:02;;;;;;;;;;;;;;;29.78;36.29;94720.78;4896423;29;7230;-65
2023/07/09 10:58:19;;;;;;;;;;;;;;;29.84;36.55;94714.41;4872671;29;9182;-65
2023/07/09 11:00:46;;;;;;;;;;;;;;;29.86;36.63;94712.59;4852545;29;7963;-65
2023/07/09 11:03:15;;;;;;;;;;;;;;;29.91;36.90;94710.97;4879058;29;7237;-66
2023/07/09 11:05:54;;;;;;;;;;;;;;;29.89;36.77;94711.50;4949560;28;7271;-66
2023/07/09 11:08:42;;;;;;;;;;;;;;;29.93;36.10;94711.94;4940040;28;9116;-65
2023/07/09 11:11:34;;;;;;;;;;;;;;;29.90;36.17;94709.50;4938148;28;7021;-66
2023/07/09 11:14:43;;;;;;;;;;;;;;;29.89;35.89;94713.53;4936216;28;8281;-66
2023/07/09 11:17:20;;;;;;;;;;;;;;;29.87;36.43;94705.75;4919628;29;9374;-65
2023/07/09 11:20:07;;;;;;;;;;;;;;;29.87;36.97;94713.31;4937001;28;9066;-66
2023/07/09 11:22:39;;;;;;;;;;;;;;;29.87;36.58;94708.53;4934252;29;7286;-66
2023/07/09 11:25:29;;;;;;;;;;;;;;;29.88;36.53;94710.03;4934483;29;7271;-66
2023/07/09 11:28:32;;;;;;;;;;;;;;;29.89;36.53;94710.75;4933572;29;9146;-66
2023/07/09 11:31:31;;;;;;;;;;;;;;;29.89;36.05;94708.72;4936352;29;8438;-66
2023/07/09 11:34:27;;;;;;;;;;;;;;;29.88;37.13;94703.72;4935848;29;7215;-65
2023/07/09 11:36:57;;;;;;;;;;;;;;;29.87;36.98;94702.97;4936707;28;7281;-65
2023/07/09 11:39:45;;;;;;;;;;;;;;;29.86;36.05;94704.28;4937904;29;7237;-65
2023/07/09 11:42:35;;;;;;;;;;;;;;;29.89;37.39;94705.22;4916177;29;9060;-65
2023/07/09 11:45:11;;;;;;;;;;;;;;;29.88;36.75;94701.72;4938266;28;7265;-65
2023/07/09 11:48:04;;;;;;;;;;;;;;;29.89;37.20;94700.41;4916919;29;7867;-66
2023/07/09 11:50:46;;;;;;;;;;;;;;;29.90;36.78;94699.16;4930532;28;7238;-64
2023/07/09 11:53:51;;;;;;;;;;;;;;;29.89;36.37;94700.41;4972155;28;7254;-65
2023/07/09 11:56:29;;;;;;;;;;;;;;;29.90;37.12;94696.38;4993318;28;9051;-65
2023/07/09 11:58:58;;;;;;;;;;;;;;;29.88;36.90;94696.16;4988570;28;7065;-65
2023/07/09 12:01:34;;;;;;;;;;;;;;;29.90;37.03;94701.91;5005311;28;7272;-65
2023/07/09 12:04:23;;;;;;;;;;;;;;;29.90;36.30;94692.84;4980344;28;6984;-65
2023/07/09 12:07:17;;;;;;;;;;;;;;;29.92;36.52;94695.84;4989900;28;7268;-65
2023/07/09 12:09:53;;;;;;;;;;;;;;;29.95;36.79;94697.56;4972932;28;9085;-65
2023/07/09 12:12:33;;;;;;;;;;;;;;;29.96;36.85;94701.81;4968085;28;7058;-65
2023/07/09 12:14:59;;;;;;;;;;;;;;;29.97;36.81;94706.81;4967998;28;7344;-66
2023/07/09 12:17:30;;;;;;;;;;;;;;;29.96;36.60;94704.56;4968317;28;8847;-65
2023/07/09 12:20:05;;;;;;;;;;;;;;;29.97;36.80;94706.81;4945467;28;7241;-65
2023/07/09 12:22:32;;;;;;;;;;;;;;;29.98;37.61;94702.78;4970072;28;7513;-66
2023/07/09 12:25:36;;;;;;;;;;;;;;;30.00;36.55;94705.00;4954623;28;7215;-66
2023/07/09 12:28:15;;;;;;;;;;;;;;;29.99;36.61;94697.97;4962328;28;7284;-65
2023/07/09 12:30:55;;;;;;;;;;;;;;;30.00;37.37;94689.13;4948256;28;8837;-65
2023/07/09 12:33:29;;;;;;;;;;;;;;;30.00;37.27;94683.56;4949411;28;6999;-66
2023/07/09 12:36:08;;;;;;;;;;;;;;;30.01;36.63;94685.06;4965429;28;9027;-65
2023/07/09 12:38:57;;;;;;;;;;;;;;;30.04;36.96;94684.00;4939566;28;7221;-65
2023/07/09 12:41:53;;;;;;;;;;;;;;;30.01;37.64;94676.75;4961949;28;7144;-65
2023/07/09 12:44:35;;;;;;;;;;;;;;;30.02;37.02;94675.47;4877893;29;6976;-65
2023/07/09 12:47:02;;;;;;;;;;;;;;;30.09;34.71;94680.38;4879876;29;7286;-64
2023/07/09 12:49:39;;;;;;;;;;;;;;;30.16;35.01;94679.72;4888188;29;7169;-65
2023/07/09 12:52:21;;;;;;;;;;;;;;;30.24;34.56;94674.28;4893841;29;7182;-65
2023/07/09 12:55:25;;;;;;;;;;;;;;;30.28;34.46;94669.88;4896779;29;9441;-64
2023/07/09 12:57:57;;;;;;;;;;;;;;;30.27;34.57;94668.41;4895878;29;7089;-64
2023/07/09 13:00:34;;;;;;;;;;;;;;;30.27;34.78;94662.88;4895279;29;7237;-64
2023/07/09 13:03:31;;;;;;;;;;;;;;;30.26;35.41;94666.16;4881339;29;9558;-64
2023/07/09 13:06:37;;;;;;;;;;;;;;;30.23;34.73;94662.41;4896502;29;9076;-64
2023/07/09 13:09:18;;;;;;;;;;;;;;;30.22;35.43;94666.50;4893496;29;7266;-64
2023/07/09 13:11:45;;;;;;;;;;;;;;;30.20;35.17;94666.28;4879375;29;7073;-65
2023/07/09 13:14:29;;;;;;;;;;;;;;;30.23;35.76;94665.19;4895232;29;7351;-64
2023/07/09 13:17:21;;;;;;;;;;;;;;;30.24;36.54;94660.41;4879936;29;9432;-65
2023/07/09 13:19:47;;;;;;;;;;;;;;;30.25;35.88;94662.66;4895219;29;7246;-63
2023/07/09 13:22:26;;;;;;;;;;;;;;;30.27;37.17;94664.88;4938429;28;6989;-64
2023/07/09 13:24:54;;;;;;;;;;;;;;;30.25;37.17;94657.09;4930414;28;9754;-63
2023/07/09 13:27:21;;;;;;;;;;;;;;;30.26;37.16;94655.81;4943965;28;7146;-62
2023/07/09 13:29:59;;;;;;;;;;;;;;;30.27;37.07;94651.75;4935098;28;8886;-62
2023/07/09 13:32:25;;;;;;;;;;;;;;;30.29;37.03;94648.44;4942366;28;7454;-62
2023/07/09 13:35:15;;;;;;;;;;;;;;;30.31;37.33;94640.34;4927650;28;6932;-62
2023/07/09 13:37:41;;;;;;;;;;;;;;;30.29;36.92;94642.91;4943635;28;7374;-62
2023/07/09 13:40:22;;;;;;;;;;;;;;;30.31;37.27;94641.09;4941357;28;7519;-62
2023/07/09 13:42:50;;;;;;;;;;;;;;;30.31;37.33;94640.34;4957864;28;9545;-62
2023/07/09 13:45:24;;;;;;;;;;;;;;;30.31;37.56;94638.34;4984746;28;7135;-62
2023/07/09 13:47:52;;;;;;;;;;;;;;;30.31;37.48;94640.34;4970811;28;7168;-62